Arusha, Tanzania

5:11 PM EAT on September 02, 2014 (GMT +0300)
Arusha | Change Station
CLOSE
Current Station
Personal Weather Station
Location: Arusha, Arusha
Elevation: 4514 ft
Nearby Weather Stations

Elev 4514 ft 3.38 °S, 36.64 °E | Updated 8 minutes ago

Mostly Cloudy
Mostly Cloudy
72.1 °F
Feels Like 76 °F
N
7.0
Wind Variable Wind from SE
Gusts 11.0 mph

Today
High -- | Low -- °F
--% Chance of Precip.
Yesterday
High -- | Low -- °F
Precip. -- in
6:31 AM 6:34 PM
First Quarter, 52% visible
Pressure 30.06 in
Visibility 6.2 miles
Clouds Mostly Cloudy 2600 ft
Heat Index 76 °F
Dew Point 58 °F
Humidity 61%
Rainfall 0.00 in
Snow Depth Not available.
UV 0.9 out of 12
Pollen Not available.
Air Quality Not available.
Flu Activity Not available.
METAR HTAR 021200Z 06010KT 9999 BKN026 22/15 Q1018

More Conditions Fewer Conditions

Pressure 30.06 in
Visibility 6.2 miles
Clouds Mostly Cloudy 2600 ft
Heat Index 76 °F
Dew Point 58 °F
Humidity 61%
Rainfall 0.00 in
Snow Depth Not available.
UV 0.9 out of 12
Pollen Not available.
Air Quality Not available.
Flu Activity Not available.
METAR HTAR 021200Z 06010KT 9999 BKN026 22/15 Q1018

More Conditions Fewer Conditions

10-Day Weather Forecast

Almanac

Astronomy

Sep. 02, 2014 Rise Set
Actual Time 6:31 AM EAT 6:34 PM EAT
Civil Twilight 6:10 AM EAT 6:55 PM EAT
Nautical Twilight 5:46 AM EAT 7:19 PM EAT
Astronomical Twilight 5:22 AM EAT 7:44 PM EAT
Moon 12:15 PM EAT No Moon Set
Length of Visible Light 12h 44m
Length of Day
12h 02m
Tomorrow will be 0m 10s longer.
First Quarter, 52% of the Moon is Illuminated
Today
First Quarter
Sep 8
Full
Sep 15
Last Quarter
Sep 24
New
Oct 1
First Quarter

Yesterday's Extremes

Country Highs Country Lows

Community

WunderPhotos

Upload Photos

1,749,677 photos uploaded!

WunderBlogs® & News

Nearby

Snow Depth

Not available.

Earthquake Activity

City Distance Mag. Time & Date
No recent earthquake activity has been reported nearby.
Minimum magnitude displayed is 2.5.

Coastal Water Temperatures

Place Temperature
No Stations Reporting

Nearby Weather Stations